Terminal Aerodrome Forecast
Issued by NWS

Home | Current Version | Previous Version | Graphics & Text | Print | Product List | Glossary On
Versions: 1 2 3 4 5 6 7 8 9 10 11 12 13 14
000
FTUS45 KGGW 132320
TAFGDV
TAF
KGDV 132320Z 1400/1424 30010KT P6SM BKN090
     FM140900 31017KT P6SM BKN030
     FM142000 30013KT P6SM SCT030
     FM142100 30013KT P6SM SCT035=

USA.gov is the U.S. government's official web portal to all federal, state and local government web resources and services.